Brainerd Lakes Regional Airport
KBRD : now visible

Airfield :











YOU CAN JOIN US ON...

 
LOGIN :

Register | Disclaimer

   EN    FR    IT 

 









Legend :    VFR   Marginal VFR   IFR   Intensive IFR   Very Intensive IFR
Visi :
Ceiling :
>= 8 km
>= 3000ft
5 to 8 km
1000 to 3000 ft
1500m to 5 km
500 to 1000 ft
800 to 1500m
200 to 500 ft
< 800m
< 200 ft
Symbols :   Thunderstorms  Fog  Heavy snow  Heavy precipitations  Wind > 20 kt






- Airport Elevation : 1232 ft


KBRD - Brainerd Lakes Regional

CURRENT METAR :
  • 190714Z AUTO 32004KT 10SM FEW010 OVC075 M15/M17 A3006 RMK AO2 T11501172

EXPIRED METARs :
  • 190653Z AUTO 32006KT 10SM OVC010 M15/M17 A3007 RMK AO2 SLP210 T11501172
  • 190611Z AUTO 31005KT 10SM OVC009 M15/M17 A3006 RMK AO2 T11501172
  • 190553Z AUTO 32009KT 10SM OVC010 M14/M17 A3006 RMK AO2 SLP208 I6000 T11441167 11083 21161 410671161 53006
  • 190453Z AUTO 34005KT 10SM BKN012 M16/M18 A3005 RMK AO2 SLP205 I1000 T11611183

TAF KBRD
Valid from the 19 at 06:00 until the 20 at 06:00 UTC


190537Z 1906/2006 32006KT P6SM OVC010
FM192200 30006KT P6SM SCT016 BKN140
FM200300 26007KT P6SM BKN012
KZMP FIR / North America



MET'MAP, your aeronautical weather chart ! - Copyright ORBIFLY December 2007 - Disclaimer

ORBIFLY MET'MAP TEAM :

Programming & Development : Alexandra Zaïnal
Concept & original design : Baudouin d'Aumeries
Assistance for programming : Marc-Olivier Méhu
Technical & hardware support : Manuel Goepfert

Contact : metmap@orbifly.com




SOURCES & CREDITS :

   NOAA       Earth
Advisory